x

Lake Nipissing (45152) Wave Buoy

12:00am - Thu 30th Jul 2015 All times are CDT. -5 hours from GMT.

  • Sig Wave height 1.0ft
  • Peak Period 2s
  • Wind
    11mph, 13mph gusts
  • Sea Temp 74°f
  • Sea Pressure 1007mb
  • Lake Nipissing
  • Lake Nipissing

More Historic Weather Station data

Upgrade to MSW Pro to gain access to the past 30 days of data for over 8000 Wavebouys and Weather Stations around the globe.

Join Pro

Comparision Forecast

View Surf forecast
   
Thu 07/30 12:00am 1ft 2s 11 13 mph 1007mb 74f
Wed 07/29 11:00pm 1ft 2s 13 16 mph 1007.2mb 74f
10:00pm 0.7ft 2s 13 18 mph 1007.3mb 74f
9:00pm 0.7ft 2s 13 16 mph 1007.2mb 74f
8:00pm 0.3ft 2s 13 20 mph 1006.9mb 74f
7:00pm 0.7ft 2s 11 18 mph 1006.9mb 74f
6:00pm 0.7ft 2s 16 20 mph 1007.3mb 74f
5:00pm 1ft 2s 20 27 mph 1007.8mb 74f
4:00pm 1ft 2s 20 27 mph 1008.2mb 75f
3:00pm 0.7ft 2s 13 18 mph 1008.6mb 75f
2:00pm 0.7ft 2s 18 25 mph 1009.8mb 75f
1:00pm 0.7ft 2s 13 20 mph 1010.5mb 75f
12:00pm 0.3ft 2s 13 20 mph 1011.1mb 76f
10:00am  -  2s 7
mph
1012.9mb 75f
9:00am  -  2s 4 7 mph 1013.4mb 74f
8:00am 0.3ft 2s  -  mph 1013.8mb 74f
7:00am 0.3ft 2s 7 9 mph 1013.8mb 74f
6:00am 0.3ft 2s 9 11 mph 1013.9mb 73f
5:00am 0.3ft 2s 9 11 mph 1013.8mb 74f
Tue 07/28 10:00pm 0.3ft 2s 11 13 mph 1013.9mb 75f
9:00pm 0.3ft 2s 9 11 mph 1014mb 75f
8:00pm 0.3ft 2s 9 11 mph 1013.3mb 76f
7:00pm 0.7ft 2s 11 13 mph 1013.2mb 77f
6:00pm  -  3s 11 13 mph 1013.1mb 80f
5:00pm  -  2s 2
mph
1012.9mb 84f
4:00pm  -  2s  -  2 mph 1013.2mb 84f
3:00pm  -  2s 2 4 mph 1013.9mb 81f
2:00pm  -  2s 2 4 mph 1014.3mb 79f
1:00pm  -  2s 2 4 mph 1014.6mb 78f
12:00pm  -  2s 4
mph
1015.2mb 78f
11:00am  -  2s 2 4 mph 1015.8mb 76f
10:00am  -  2s 4
mph
1015.8mb 75f
9:00am  -  3s 2 4 mph 1016mb 74f
8:00am 0.3ft 3s 4 7 mph 1016.3mb 73f
7:00am 0.3ft 3s 7 9 mph 1016mb 73f
6:00am 0.3ft 3s 7 9 mph 1015.8mb 73f
2:00am  -   -  13
mph
- -
1:00am 0.7ft 2s 13 18 mph 1014.8mb 74f
12:00am 0.3ft 2s 11 13 mph 1014.8mb 74f
Mon 07/27 11:00pm 0.3ft 2s 11 13 mph 1014.7mb 74f
10:00pm 0.3ft 2s 13 16 mph 1014.6mb 74f
9:00pm 0.3ft 2s 9 11 mph 1014.6mb 76f
8:00pm 0.7ft 2s 9
mph
1014.1mb 78f
7:00pm 0.3ft 2s 11 13 mph 1013.5mb 78f
5:00pm  -  2s 4
mph
1013.2mb 78f
4:00pm  -  2s 2
mph
1013.4mb 81f
3:00pm  -  2s 2
mph
1013.9mb 79f
2:00pm  -  3s 2 4 mph 1014.1mb 78f
1:00pm  -  2s 2 4 mph 1014.4mb 77f
12:00pm  -  2s  -  2 mph 1015mb 76f
11:00am  -  2s 4
mph
1015.2mb 73f
10:00am  -  2s 7
mph
1015.3mb 72f
9:00am 0.3ft 2s 7
mph
1015.5mb 71f
8:00am 0.3ft 2s 7
mph
1015.4mb 71f
7:00am 0.3ft 2s 7 9 mph 1015mb 71f
6:00am 0.3ft 2s 9 11 mph 1015mb 71f
5:00am 0.3ft 2s 9 11 mph 1014.5mb 71f
2:00am 0.3ft 3s 9 11 mph 1013.6mb 71f
1:00am 0.3ft 2s 7 9 mph 1013.3mb 71f
12:00am 0.3ft 2s 9
mph
1013.6mb 71f
Sun 07/26 11:00pm 0.3ft 2s 11 13 mph 1013.3mb 71f
10:00pm 0.7ft 2s 11 13 mph 1013.1mb 71f
9:00pm 0.7ft 2s 11 13 mph 1013.1mb 71f
8:00pm 0.7ft 2s 9 11 mph 1012.7mb 71f
7:00pm 1ft 2s 13 16 mph 1012.1mb 71f
6:00pm 1ft 2s 13 16 mph 1012mb 72f
5:00pm 0.7ft 2s 13 18 mph 1012.1mb 72f
4:00pm 0.3ft 2s 11 13 mph 1012.1mb 74f
3:00pm  -  2s 9 13 mph 1012.1mb 78f
2:00pm  -  2s 2 4 mph 1012.4mb 77f
1:00pm  -  3s 4
mph
1012.6mb 76f
12:00pm 0.3ft 2s  -  mph 1013mb 74f
11:00am 0.3ft 3s 4 7 mph 1013.2mb 72f
10:00am  -  2s 7
mph
1013.1mb 71f
9:00am  -  3s 7
mph
1013.1mb 71f
8:00am 0.3ft 2s 4 7 mph 1013mb 71f
7:00am 0.3ft 2s 4 7 mph 1012.8mb 70f